Time,TemperatureF,DewpointF,PressureIn,WindDirection,WindDirectionDegrees,WindSpeedMPH,WindSpeedGustMPH,Humidity,HourlyPrecipIn,Conditions,Clouds,dailyrainin,SoftwareType,DateUTC
2013-02-17 00:05:00,51.0,43.4,30.12,WSW,238,0.0,0.0,75,0.00,,,0.00,Wunderground v.1.13,2013-02-16 23:05:00,
2013-02-17 00:15:00,50.8,42.8,30.12,WSW,237,0.0,0.0,74,0.00,,,0.00,Wunderground v.1.13,2013-02-16 23:15:00,
2013-02-17 00:20:00,50.8,42.8,30.12,WSW,237,0.0,0.0,74,0.00,,,0.00,Wunderground v.1.13,2013-02-16 23:20:00,
2013-02-17 00:25:00,50.8,42.8,30.12,WSW,238,0.0,0.0,74,0.00,,,0.00,Wunderground v.1.13,2013-02-16 23:25:00,
2013-02-17 00:35:00,50.8,43.2,30.12,WSW,237,0.0,0.0,75,0.00,,,0.00,Wunderground v.1.13,2013-02-16 23:35:00,
2013-02-17 00:40:00,50.8,43.2,30.12,WSW,238,0.0,0.0,75,0.00,,,0.00,Wunderground v.1.13,2013-02-16 23:40:00,
2013-02-17 00:45:00,50.7,43.1,30.12,WSW,238,0.0,0.0,75,0.00,,,0.00,Wunderground v.1.13,2013-02-16 23:45:00,
2013-02-17 00:50:00,50.6,43.3,30.12,WSW,237,0.0,0.0,76,0.00,,,0.00,Wunderground v.1.13,2013-02-16 23:50:00,
2013-02-17 01:00:00,50.6,43.3,30.12,WSW,238,0.0,0.0,76,0.00,,,0.00,Wunderground v.1.13,2013-02-17 00:00:00,
2013-02-17 01:10:00,50.4,43.1,30.12,WSW,238,0.0,0.0,76,0.00,,,0.00,Wunderground v.1.13,2013-02-17 00:10:00,
2013-02-17 01:15:00,50.4,43.1,30.12,WSW,237,0.0,0.0,76,0.00,,,0.00,Wunderground v.1.13,2013-02-17 00:15:00,
2013-02-17 01:25:00,50.4,43.1,30.12,WSW,237,0.0,0.0,76,0.00,,,0.00,Wunderground v.1.13,2013-02-17 00:25:00,
2013-02-17 01:35:00,50.3,43.0,30.11,WSW,238,0.0,0.0,76,0.00,,,0.00,Wunderground v.1.13,2013-02-17 00:35:00,
2013-02-17 01:45:00,50.1,43.2,30.11,WSW,237,0.0,0.0,77,0.00,,,0.00,Wunderground v.1.13,2013-02-17 00:45:00,
2013-02-17 01:55:00,50.0,43.1,30.11,WSW,238,0.0,4.0,77,0.00,,,0.00,Wunderground v.1.13,2013-02-17 00:55:00,
2013-02-17 02:15:00,49.7,42.8,30.11,WSW,237,0.0,0.0,77,0.00,,,0.00,Wunderground v.1.13,2013-02-17 01:15:00,
2013-02-17 02:25:00,49.5,42.6,30.11,WSW,237,0.0,0.0,77,0.00,,,0.00,Wunderground v.1.13,2013-02-17 01:25:00,
2013-02-17 02:30:00,49.4,42.1,30.11,WSW,237,0.0,0.0,76,0.00,,,0.00,Wunderground v.1.13,2013-02-17 01:30:00,
2013-02-17 02:35:00,49.3,42.1,30.11,WSW,237,0.0,0.0,76,0.00,,,0.00,Wunderground v.1.13,2013-02-17 01:35:00,
2013-02-17 02:40:00,49.3,42.1,30.10,WSW,238,0.0,0.0,76,0.00,,,0.00,Wunderground v.1.13,2013-02-17 01:40:00,
2013-02-17 02:45:00,49.3,42.1,30.10,WSW,237,0.0,0.0,76,0.00,,,0.00,Wunderground v.1.13,2013-02-17 01:45:00,
2013-02-17 02:55:00,49.4,41.8,30.10,WSW,237,0.0,0.0,75,0.00,,,0.00,Wunderground v.1.13,2013-02-17 01:55:00,
2013-02-17 03:00:00,49.5,41.9,30.10,WSW,237,0.0,0.0,75,0.00,,,0.00,Wunderground v.1.13,2013-02-17 02:00:00,
2013-02-17 03:15:00,49.6,42.0,30.09,WSW,237,0.0,0.0,75,0.00,,,0.00,Wunderground v.1.13,2013-02-17 02:15:00,
2013-02-17 03:20:00,49.6,42.0,30.09,WSW,238,0.0,0.0,75,0.00,,,0.00,Wunderground v.1.13,2013-02-17 02:20:00,
2013-02-17 03:25:00,49.6,42.0,30.09,WSW,237,0.0,0.0,75,0.00,,,0.00,Wunderground v.1.13,2013-02-17 02:25:00,
2013-02-17 03:30:00,49.6,42.0,30.09,WSW,237,0.0,2.0,75,0.00,,,0.00,Wunderground v.1.13,2013-02-17 02:30:00,
2013-02-17 03:45:00,49.6,41.7,30.08,WSW,237,0.0,0.0,74,0.00,,,0.00,Wunderground v.1.13,2013-02-17 02:45:00,
2013-02-17 03:55:00,49.4,41.5,30.08,WSW,238,0.0,0.0,74,0.00,,,0.00,Wunderground v.1.13,2013-02-17 02:55:00,
2013-02-17 04:10:00,48.9,41.3,30.08,WSW,237,0.0,0.0,75,0.00,,,0.00,Wunderground v.1.13,2013-02-17 03:10:00,
2013-02-17 04:15:00,48.6,41.0,30.07,WSW,237,0.0,0.0,75,0.00,,,0.00,Wunderground v.1.13,2013-02-17 03:15:00,
2013-02-17 04:20:00,48.3,41.1,30.07,WSW,237,0.0,0.0,76,0.00,,,0.00,Wunderground v.1.13,2013-02-17 03:20:00,
2013-02-17 04:40:00,48.8,41.6,30.07,WSW,237,0.0,0.0,76,0.00,,,0.00,Wunderground v.1.13,2013-02-17 03:40:00,
2013-02-17 04:50:00,48.9,41.3,30.07,WSW,238,0.0,0.0,75,0.00,,,0.00,Wunderground v.1.13,2013-02-17 03:50:00,
2013-02-17 04:59:00,48.6,41.0,30.07,WSW,237,0.0,0.0,75,0.00,,,0.00,Wunderground v.1.13,2013-02-17 03:59:00,
2013-02-17 05:10:00,48.5,41.3,30.07,WSW,238,0.0,0.0,76,0.00,,,0.00,Wunderground v.1.13,2013-02-17 04:10:00,
2013-02-17 05:25:00,47.9,41.0,30.07,WSW,237,0.0,0.0,77,0.00,,,0.00,Wunderground v.1.13,2013-02-17 04:25:00,
2013-02-17 05:30:00,47.6,40.7,30.07,WSW,237,0.0,0.0,77,0.00,,,0.00,Wunderground v.1.13,2013-02-17 04:30:00,
2013-02-17 05:40:00,47.1,40.6,30.07,WSW,238,0.0,0.0,78,0.00,,,0.00,Wunderground v.1.13,2013-02-17 04:40:00,
2013-02-17 05:50:00,46.8,40.3,30.07,WSW,237,0.0,0.0,78,0.00,,,0.00,Wunderground v.1.13,2013-02-17 04:50:00,
2013-02-17 05:55:00,46.6,40.1,30.06,WSW,238,0.0,0.0,78,0.00,,,0.00,Wunderground v.1.13,2013-02-17 04:55:00,
2013-02-17 06:00:00,46.3,40.1,30.06,WSW,237,0.0,0.0,79,0.00,,,0.00,Wunderground v.1.13,2013-02-17 05:00:00,
2013-02-17 06:10:00,46.1,40.3,30.06,SW,236,0.0,0.0,80,0.00,,,0.00,Wunderground v.1.13,2013-02-17 05:10:00,
2013-02-17 06:15:00,46.0,40.2,30.06,WSW,238,0.0,0.0,80,0.00,,,0.00,Wunderground v.1.13,2013-02-17 05:15:00,
2013-02-17 06:20:00,46.0,40.2,30.06,SW,236,0.0,0.0,80,0.00,,,0.00,Wunderground v.1.13,2013-02-17 05:20:00,
2013-02-17 06:30:00,45.9,40.4,30.06,WSW,237,0.0,0.0,81,0.00,,,0.00,Wunderground v.1.13,2013-02-17 05:30:00,
2013-02-17 06:35:00,45.8,40.3,30.06,SW,236,0.0,0.0,81,0.00,,,0.00,Wunderground v.1.13,2013-02-17 05:35:00,
2013-02-17 06:45:00,45.7,40.5,30.06,SW,236,0.0,0.0,82,0.00,,,0.00,Wunderground v.1.13,2013-02-17 05:45:00,
2013-02-17 06:55:00,45.5,40.3,30.06,WSW,238,0.0,0.0,82,0.00,,,0.00,Wunderground v.1.13,2013-02-17 05:55:00,
2013-02-17 07:05:00,45.5,40.6,30.06,WSW,238,0.0,0.0,83,0.00,,,0.00,Wunderground v.1.13,2013-02-17 06:05:00,
2013-02-17 07:10:00,45.4,40.5,30.06,WSW,237,0.0,0.0,83,0.00,,,0.00,Wunderground v.1.13,2013-02-17 06:10:00,
2013-02-17 07:15:00,45.4,40.8,30.06,WSW,237,0.0,0.0,84,0.00,,,0.00,Wunderground v.1.13,2013-02-17 06:15:00,
2013-02-17 07:25:00,45.6,41.0,30.06,SW,236,0.0,0.0,84,0.00,,,0.00,Wunderground v.1.13,2013-02-17 06:25:00,
2013-02-17 07:30:00,45.5,40.9,30.06,North,360,0.0,0.0,84,0.00,,,0.00,Wunderground v.1.13,2013-02-17 06:30:00,
2013-02-17 07:40:00,45.4,40.8,30.05,WSW,238,0.0,0.0,84,0.00,,,0.00,Wunderground v.1.13,2013-02-17 06:40:00,
2013-02-17 07:50:00,45.4,40.8,30.06,North,360,0.0,0.0,84,0.00,,,0.00,Wunderground v.1.13,2013-02-17 06:50:00,
2013-02-17 07:55:00,45.6,41.4,30.05,WSW,237,0.0,0.0,85,0.00,,,0.00,Wunderground v.1.13,2013-02-17 06:55:00,
2013-02-17 08:00:00,45.8,41.5,30.06,North,360,0.0,0.0,85,0.00,,,0.00,Wunderground v.1.13,2013-02-17 07:00:00,
2013-02-17 08:10:00,46.0,41.7,30.06,WSW,237,0.0,0.0,85,0.00,,,0.00,Wunderground v.1.13,2013-02-17 07:10:00,
2013-02-17 08:15:00,46.1,41.8,30.06,WSW,237,0.0,0.0,85,0.00,,,0.00,Wunderground v.1.13,2013-02-17 07:15:00,
2013-02-17 08:20:00,46.3,42.0,30.06,SW,236,0.0,0.0,85,0.00,,,0.00,Wunderground v.1.13,2013-02-17 07:20:00,
2013-02-17 08:30:00,46.9,42.6,30.06,SW,236,0.0,0.0,85,0.00,,,0.00,Wunderground v.1.13,2013-02-17 07:30:00,
2013-02-17 08:40:00,48.0,43.7,30.06,WSW,237,0.0,0.0,85,0.00,,,0.00,Wunderground v.1.13,2013-02-17 07:40:00,
2013-02-17 08:45:00,48.5,44.2,30.06,WSW,237,0.0,0.0,85,0.00,,,0.00,Wunderground v.1.13,2013-02-17 07:45:00,
2013-02-17 08:50:00,49.1,44.8,30.06,WSW,237,0.0,0.0,85,0.00,,,0.00,Wunderground v.1.13,2013-02-17 07:50:00,
2013-02-17 08:55:00,49.6,45.0,30.06,WSW,237,0.0,0.0,84,0.00,,,0.00,Wunderground v.1.13,2013-02-17 07:55:00,
2013-02-17 09:05:00,50.5,45.5,30.06,WSW,237,0.0,0.0,83,0.00,,,0.00,Wunderground v.1.13,2013-02-17 08:05:00,
2013-02-17 09:10:00,51.0,45.7,30.06,WSW,237,0.0,0.0,82,0.00,,,0.00,Wunderground v.1.13,2013-02-17 08:10:00,
2013-02-17 09:15:00,51.5,46.2,30.06,WSW,238,0.0,0.0,82,0.00,,,0.00,Wunderground v.1.13,2013-02-17 08:15:00,
2013-02-17 09:25:00,52.0,46.0,30.06,WSW,238,0.0,0.0,80,0.00,,,0.00,Wunderground v.1.13,2013-02-17 08:25:00,
2013-02-17 09:30:00,52.3,46.3,30.06,WSW,237,0.0,0.0,80,0.00,,,0.00,Wunderground v.1.13,2013-02-17 08:30:00,
2013-02-17 09:40:00,52.8,46.8,30.06,WSW,237,0.0,0.0,80,0.00,,,0.00,Wunderground v.1.13,2013-02-17 08:40:00,
2013-02-17 09:45:00,53.1,46.8,30.06,WSW,237,0.0,0.0,79,0.00,,,0.00,Wunderground v.1.13,2013-02-17 08:45:00,
2013-02-17 09:50:00,53.2,46.9,30.06,WSW,237,0.0,0.0,79,0.00,,,0.00,Wunderground v.1.13,2013-02-17 08:50:00,
2013-02-17 10:00:00,53.5,47.1,30.05,WSW,238,0.0,5.0,79,0.00,,,0.00,Wunderground v.1.13,2013-02-17 09:00:00,
2013-02-17 10:05:00,53.5,47.1,30.05,WSW,237,1.0,1.0,79,0.00,,,0.00,Wunderground v.1.13,2013-02-17 09:05:00,
2013-02-17 10:15:00,53.5,47.1,30.06,WSW,238,0.0,4.0,79,0.00,,,0.00,Wunderground v.1.13,2013-02-17 09:15:00,
2013-02-17 10:20:00,53.5,47.5,30.06,WSW,237,1.0,1.0,80,0.00,,,0.00,Wunderground v.1.13,2013-02-17 09:20:00,
2013-02-17 10:30:00,54.1,48.1,30.06,WSW,237,1.0,1.0,80,0.00,,,0.00,Wunderground v.1.13,2013-02-17 09:30:00,
2013-02-17 10:35:00,54.5,48.1,30.06,WSW,254,1.0,6.0,79,0.00,,,0.00,Wunderground v.1.13,2013-02-17 09:35:00,
2013-02-17 10:40:00,54.8,48.4,30.05,WSW,248,2.0,5.0,79,0.00,,,0.00,Wunderground v.1.13,2013-02-17 09:40:00,
2013-02-17 10:50:00,55.2,48.5,30.06,WSW,257,3.0,3.0,78,0.00,,,0.00,Wunderground v.1.13,2013-02-17 09:50:00,
2013-02-17 10:55:00,55.9,48.8,30.06,WSW,255,1.0,5.0,77,0.00,,,0.00,Wunderground v.1.13,2013-02-17 09:55:00,
2013-02-17 11:15:00,56.3,48.8,30.05,WSW,256,2.0,2.0,76,0.00,,,0.00,Wunderground v.1.13,2013-02-17 10:15:00,
2013-02-17 11:25:00,56.7,48.5,30.05,WSW,257,2.0,7.0,74,0.00,,,0.00,Wunderground v.1.13,2013-02-17 10:25:00,
2013-02-17 11:35:00,56.4,47.9,30.05,West,261,2.0,6.0,73,0.00,,,0.00,Wunderground v.1.13,2013-02-17 10:35:00,
2013-02-17 11:40:00,55.9,47.7,30.05,WSW,255,4.0,4.0,74,0.00,,,0.00,Wunderground v.1.13,2013-02-17 10:40:00,
2013-02-17 11:55:00,55.6,47.8,30.05,WSW,257,2.0,2.0,75,0.00,,,0.00,Wunderground v.1.13,2013-02-17 10:55:00,
2013-02-17 12:00:00,55.7,47.9,30.05,WSW,256,2.0,4.0,75,0.00,,,0.00,Wunderground v.1.13,2013-02-17 11:00:00,
2013-02-17 12:10:00,55.9,48.1,30.05,WSW,252,2.0,4.0,75,0.00,,,0.00,Wunderground v.1.13,2013-02-17 11:10:00,
2013-02-17 12:15:00,55.7,47.5,30.04,West,271,4.0,4.0,74,0.00,,,0.00,Wunderground v.1.13,2013-02-17 11:15:00,
2013-02-17 12:20:00,55.8,47.6,30.04,SSW,208,3.0,8.0,74,0.00,,,0.00,Wunderground v.1.13,2013-02-17 11:20:00,
2013-02-17 12:25:00,56.0,47.5,30.04,WSW,253,2.0,6.0,73,0.00,,,0.00,Wunderground v.1.13,2013-02-17 11:25:00,
2013-02-17 12:35:00,56.0,47.5,30.03,SW,223,3.0,3.0,73,0.00,,,0.00,Wunderground v.1.13,2013-02-17 11:35:00,
2013-02-17 12:45:00,56.2,47.3,30.03,West,267,2.0,6.0,72,0.00,,,0.00,Wunderground v.1.13,2013-02-17 11:45:00,
2013-02-17 12:55:00,56.2,47.3,30.03,West,265,4.0,4.0,72,0.00,,,0.00,Wunderground v.1.13,2013-02-17 11:55:00,
2013-02-17 13:00:00,56.2,47.3,30.02,WSW,249,3.0,4.0,72,0.00,,,0.00,Wunderground v.1.13,2013-02-17 12:00:00,
2013-02-17 13:10:00,55.9,47.4,30.02,West,260,4.0,4.0,73,0.00,,,0.00,Wunderground v.1.13,2013-02-17 12:10:00,
2013-02-17 13:20:00,55.7,47.5,30.02,West,273,3.0,6.0,74,0.00,,,0.00,Wunderground v.1.13,2013-02-17 12:20:00,
2013-02-17 13:25:00,55.7,47.9,30.02,WNW,296,4.0,7.0,75,0.00,,,0.00,Wunderground v.1.13,2013-02-17 12:25:00,
2013-02-17 13:35:00,55.6,47.8,30.01,WNW,298,6.0,6.0,75,0.00,,,0.00,Wunderground v.1.13,2013-02-17 12:35:00,
2013-02-17 13:40:00,55.8,48.0,30.01,WNW,298,5.0,5.0,75,0.00,,,0.00,Wunderground v.1.13,2013-02-17 12:40:00,
2013-02-17 13:50:00,56.2,48.0,30.00,WSW,253,4.0,4.0,74,0.00,,,0.00,Wunderground v.1.13,2013-02-17 12:50:00,
2013-02-17 13:55:00,56.1,47.6,30.00,West,259,3.0,3.0,73,0.00,,,0.00,Wunderground v.1.13,2013-02-17 12:55:00,
2013-02-17 14:10:00,55.9,47.4,30.00,West,267,3.0,3.0,73,0.00,,,0.00,Wunderground v.1.13,2013-02-17 13:10:00,
2013-02-17 14:20:00,55.8,47.6,30.00,West,273,3.0,7.0,74,0.00,,,0.00,Wunderground v.1.13,2013-02-17 13:20:00,
2013-02-17 14:30:00,55.6,47.4,29.99,West,274,3.0,3.0,74,0.00,,,0.00,Wunderground v.1.13,2013-02-17 13:30:00,
2013-02-17 14:40:00,55.4,47.2,29.99,West,280,4.0,5.0,74,0.00,,,0.00,Wunderground v.1.13,2013-02-17 13:40:00,
2013-02-17 14:45:00,55.4,47.2,29.99,West,279,4.0,7.0,74,0.00,,,0.00,Wunderground v.1.13,2013-02-17 13:45:00,
2013-02-17 14:50:00,55.4,47.6,29.99,West,271,3.0,6.0,75,0.00,,,0.00,Wunderground v.1.13,2013-02-17 13:50:00,
2013-02-17 14:55:00,55.5,47.7,29.98,WNW,284,4.0,9.0,75,0.00,,,0.00,Wunderground v.1.13,2013-02-17 13:55:00,
2013-02-17 15:10:00,55.4,47.6,29.98,WNW,286,6.0,6.0,75,0.00,,,0.00,Wunderground v.1.13,2013-02-17 14:10:00,
2013-02-17 15:15:00,55.4,47.6,29.98,WNW,291,5.0,7.0,75,0.00,,,0.00,Wunderground v.1.13,2013-02-17 14:15:00,
2013-02-17 15:20:00,55.5,48.1,29.98,WNW,293,4.0,9.0,76,0.00,,,0.00,Wunderground v.1.13,2013-02-17 14:20:00,
2013-02-17 15:30:00,55.5,48.1,29.98,WNW,289,5.0,8.0,76,0.00,,,0.00,Wunderground v.1.13,2013-02-17 14:30:00,
2013-02-17 15:35:00,55.5,48.1,29.98,West,269,7.0,7.0,76,0.00,,,0.00,Wunderground v.1.13,2013-02-17 14:35:00,
2013-02-17 15:40:00,55.5,48.1,29.98,WNW,293,6.0,6.0,76,0.00,,,0.00,Wunderground v.1.13,2013-02-17 14:40:00,
2013-02-17 15:50:00,55.5,47.7,29.98,WNW,296,5.0,9.0,75,0.00,,,0.00,Wunderground v.1.13,2013-02-17 14:50:00,
2013-02-17 16:15:00,55.7,47.9,29.97,WNW,294,4.0,4.0,75,0.00,,,0.00,Wunderground v.1.13,2013-02-17 15:15:00,
2013-02-17 16:25:00,56.0,48.2,29.97,West,263,3.0,8.0,75,0.00,,,0.00,Wunderground v.1.13,2013-02-17 15:25:00,
2013-02-17 16:35:00,55.9,48.1,29.97,WNW,292,5.0,8.0,75,0.00,,,0.00,Wunderground v.1.13,2013-02-17 15:35:00,
2013-02-17 16:50:00,56.0,48.2,29.97,WNW,295,4.0,8.0,75,0.00,,,0.00,Wunderground v.1.13,2013-02-17 15:50:00,
2013-02-17 16:55:00,56.0,48.2,29.97,WNW,296,4.0,7.0,75,0.00,,,0.00,Wunderground v.1.13,2013-02-17 15:55:00,
2013-02-17 17:00:00,56.0,48.2,29.97,WNW,296,4.0,4.0,75,0.00,,,0.00,Wunderground v.1.13,2013-02-17 16:00:00,
2013-02-17 17:10:00,56.1,48.3,29.97,WNW,289,3.0,3.0,75,0.00,,,0.00,Wunderground v.1.13,2013-02-17 16:10:00,
2013-02-17 17:15:00,56.0,48.2,29.97,West,279,4.0,4.0,75,0.00,,,0.00,Wunderground v.1.13,2013-02-17 16:15:00,
2013-02-17 17:20:00,56.0,48.2,29.97,WNW,285,3.0,3.0,75,0.00,,,0.00,Wunderground v.1.13,2013-02-17 16:20:00,
2013-02-17 17:30:00,55.6,48.2,29.97,WNW,296,6.0,8.0,76,0.00,,,0.00,Wunderground v.1.13,2013-02-17 16:30:00,
2013-02-17 17:35:00,55.5,48.1,29.97,WNW,296,5.0,5.0,76,0.00,,,0.00,Wunderground v.1.13,2013-02-17 16:35:00,
2013-02-17 17:44:00,55.5,48.1,29.97,WNW,292,3.0,5.0,76,0.00,,,0.00,Wunderground v.1.13,2013-02-17 16:44:00,
2013-02-17 17:49:00,55.4,48.0,29.97,WNW,291,4.0,7.0,76,0.00,,,0.00,Wunderground v.1.13,2013-02-17 16:49:00,
2013-02-17 17:55:00,55.4,48.0,29.97,WNW,292,4.0,4.0,76,0.00,,,0.00,Wunderground v.1.13,2013-02-17 16:55:00,
2013-02-17 18:10:00,55.2,47.8,29.97,WNW,288,2.0,2.0,76,0.00,,,0.00,Wunderground v.1.13,2013-02-17 17:10:00,
2013-02-17 18:20:00,55.1,48.0,29.97,WNW,292,4.0,7.0,77,0.00,,,0.00,Wunderground v.1.13,2013-02-17 17:20:00,
2013-02-17 18:30:00,55.0,48.3,29.97,WNW,292,2.0,7.0,78,0.00,,,0.00,Wunderground v.1.13,2013-02-17 17:30:00,
2013-02-17 18:44:00,54.8,48.4,29.97,WNW,284,1.0,1.0,79,0.00,,,0.00,Wunderground v.1.13,2013-02-17 17:44:00,
2013-02-17 18:50:00,54.6,48.2,29.97,WNW,284,0.0,0.0,79,0.00,,,0.00,Wunderground v.1.13,2013-02-17 17:50:00,
2013-02-17 19:00:00,54.5,48.5,29.97,North,360,0.0,0.0,80,0.00,,,0.00,Wunderground v.1.13,2013-02-17 18:00:00,
2013-02-17 19:10:00,54.4,48.7,29.97,North,360,0.0,0.0,81,0.00,,,0.00,Wunderground v.1.13,2013-02-17 18:10:00,
2013-02-17 19:20:00,54.2,48.8,29.97,WNW,284,0.0,4.0,82,0.00,,,0.00,Wunderground v.1.13,2013-02-17 18:20:00,
2013-02-17 19:30:00,54.1,48.7,29.97,WNW,284,1.0,1.0,82,0.00,,,0.00,Wunderground v.1.13,2013-02-17 18:30:00,
2013-02-17 19:40:00,53.9,48.9,29.97,WNW,284,1.0,6.0,83,0.00,,,0.00,Wunderground v.1.13,2013-02-17 18:40:00,
2013-02-17 19:50:00,53.8,49.1,29.97,North,360,1.0,1.0,84,0.00,,,0.00,Wunderground v.1.13,2013-02-17 18:50:00,
2013-02-17 19:55:00,53.8,49.1,29.97,WNW,286,0.0,0.0,84,0.00,,,0.00,Wunderground v.1.13,2013-02-17 18:55:00,
2013-02-17 20:00:00,53.9,49.2,29.97,North,360,0.0,1.0,84,0.00,,,0.00,Wunderground v.1.13,2013-02-17 19:00:00,
2013-02-17 20:10:00,53.8,49.1,29.97,WNW,285,0.0,0.0,84,0.00,,,0.00,Wunderground v.1.13,2013-02-17 19:10:00,
2013-02-17 20:20:00,53.9,49.2,29.97,WNW,285,0.0,1.0,84,0.00,,,0.00,Wunderground v.1.13,2013-02-17 19:20:00,
2013-02-17 20:25:00,53.9,49.2,29.98,WNW,286,0.0,1.0,84,0.00,,,0.00,Wunderground v.1.13,2013-02-17 19:25:00,
2013-02-17 20:35:00,53.9,49.2,29.97,WNW,286,1.0,1.0,84,0.00,,,0.00,Wunderground v.1.13,2013-02-17 19:35:00,
2013-02-17 20:50:00,53.9,49.2,29.97,North,360,0.0,5.0,84,0.00,,,0.00,Wunderground v.1.13,2013-02-17 19:50:00,
2013-02-17 21:00:00,53.8,49.4,29.97,WNW,286,1.0,1.0,85,0.00,,,0.00,Wunderground v.1.13,2013-02-17 20:00:00,
2013-02-17 21:10:00,53.8,49.4,29.97,North,360,1.0,1.0,85,0.00,,,0.00,Wunderground v.1.13,2013-02-17 20:10:00,
2013-02-17 21:20:00,53.8,49.4,29.97,North,360,1.0,6.0,85,0.00,,,0.00,Wunderground v.1.13,2013-02-17 20:20:00,
2013-02-17 21:25:00,53.8,49.4,29.97,WNW,285,1.0,5.0,85,0.00,,,0.00,Wunderground v.1.13,2013-02-17 20:25:00,
2013-02-17 21:35:00,53.7,49.3,29.97,WNW,285,0.0,0.0,85,0.00,,,0.00,Wunderground v.1.13,2013-02-17 20:35:00,
2013-02-17 21:40:00,53.7,49.3,29.97,North,360,0.0,0.0,85,0.00,,,0.00,Wunderground v.1.13,2013-02-17 20:40:00,
2013-02-17 21:49:00,53.6,49.2,29.97,WNW,286,0.0,0.0,85,0.00,,,0.00,Wunderground v.1.13,2013-02-17 20:49:00,
2013-02-17 21:55:00,53.6,49.2,29.97,WNW,285,0.0,0.0,85,0.00,,,0.00,Wunderground v.1.13,2013-02-17 20:55:00,
2013-02-17 22:00:00,53.6,49.2,29.97,WNW,285,0.0,0.0,85,0.00,,,0.00,Wunderground v.1.13,2013-02-17 21:00:00,
2013-02-17 22:09:00,53.5,49.1,29.97,WNW,285,0.0,0.0,85,0.00,,,0.00,Wunderground v.1.13,2013-02-17 21:09:00,
2013-02-17 22:15:00,53.4,49.0,29.97,North,360,0.0,0.0,85,0.00,,,0.00,Wunderground v.1.13,2013-02-17 21:15:00,
2013-02-17 22:20:00,53.4,49.0,29.97,North,360,0.0,0.0,85,0.00,,,0.00,Wunderground v.1.13,2013-02-17 21:20:00,
2013-02-17 22:25:00,53.3,49.2,29.97,WNW,285,0.0,0.0,86,0.00,,,0.00,Wunderground v.1.13,2013-02-17 21:25:00,
2013-02-17 22:30:00,53.2,49.1,29.97,WNW,284,0.0,0.0,86,0.00,,,0.00,Wunderground v.1.13,2013-02-17 21:30:00,
2013-02-17 22:40:00,53.2,49.1,29.97,North,360,0.0,1.0,86,0.00,,,0.00,Wunderground v.1.13,2013-02-17 21:40:00,
2013-02-17 22:45:00,53.2,49.1,29.97,North,360,0.0,0.0,86,0.00,,,0.00,Wunderground v.1.13,2013-02-17 21:45:00,
2013-02-17 22:55:00,53.2,49.1,29.97,North,360,0.0,0.0,86,0.00,,,0.00,Wunderground v.1.13,2013-02-17 21:55:00,
2013-02-17 23:00:00,53.3,49.2,29.97,WNW,286,0.0,0.0,86,0.00,,,0.00,Wunderground v.1.13,2013-02-17 22:00:00,
2013-02-17 23:15:00,53.3,49.2,29.96,WNW,285,0.0,1.0,86,0.00,,,0.00,Wunderground v.1.13,2013-02-17 22:15:00,
2013-02-17 23:25:00,53.2,49.1,29.96,North,360,0.0,1.0,86,0.00,,,0.00,Wunderground v.1.13,2013-02-17 22:25:00,
2013-02-17 23:30:00,53.2,49.4,29.96,WNW,285,0.0,0.0,87,0.00,,,0.00,Wunderground v.1.13,2013-02-17 22:30:00,
2013-02-17 23:35:00,53.2,49.4,29.96,North,360,0.0,0.0,87,0.00,,,0.00,Wunderground v.1.13,2013-02-17 22:35:00,
2013-02-17 23:40:00,53.2,49.4,29.96,WNW,286,0.0,0.0,87,0.00,,,0.00,Wunderground v.1.13,2013-02-17 22:40:00,
2013-02-17 23:50:00,53.1,49.3,29.96,WNW,286,0.0,0.0,87,0.00,,,0.00,Wunderground v.1.13,2013-02-17 22:50:00,
2013-02-17 23:55:00,53.1,49.3,29.96,WNW,286,0.0,1.0,87,0.00,,,0.00,Wunderground v.1.13,2013-02-17 22:55:00,